sensor_id;sensor_type;location;lat;lon;timestamp;P1;durP1;ratioP1;P2;durP2;ratioP2
28796;SDS011;24974;54.444;18.560;2024-03-07T00:02:16;27.13;;;14.32;;
28796;SDS011;24974;54.444;18.560;2024-03-07T00:04:47;23.65;;;13.23;;
28796;SDS011;24974;54.444;18.560;2024-03-07T00:07:18;21.42;;;13.02;;
28796;SDS011;24974;54.444;18.560;2024-03-07T00:09:49;24.42;;;13.90;;
28796;SDS011;24974;54.444;18.560;2024-03-07T00:12:21;20.83;;;12.02;;
28796;SDS011;24974;54.444;18.560;2024-03-07T00:14:53;21.63;;;12.43;;
28796;SDS011;24974;54.444;18.560;2024-03-07T00:17:24;21.05;;;13.25;;
28796;SDS011;24974;54.444;18.560;2024-03-07T00:19:54;20.83;;;12.25;;
28796;SDS011;24974;54.444;18.560;2024-03-07T00:22:26;21.70;;;12.27;;
28796;SDS011;24974;54.444;18.560;2024-03-07T00:25:00;22.05;;;12.20;;
28796;SDS011;24974;54.444;18.560;2024-03-07T00:27:31;23.25;;;12.93;;
28796;SDS011;24974;54.444;18.560;2024-03-07T00:30:02;23.38;;;12.48;;
28796;SDS011;24974;54.444;18.560;2024-03-07T00:32:35;24.80;;;13.20;;
28796;SDS011;24974;54.444;18.560;2024-03-07T00:35:07;23.00;;;13.00;;
28796;SDS011;24974;54.444;18.560;2024-03-07T00:37:39;23.50;;;13.30;;
28796;SDS011;24974;54.444;18.560;2024-03-07T00:40:10;26.67;;;12.98;;
28796;SDS011;24974;54.444;18.560;2024-03-07T00:42:41;26.35;;;13.73;;
28796;SDS011;24974;54.444;18.560;2024-03-07T00:45:12;28.23;;;13.13;;
28796;SDS011;24974;54.444;18.560;2024-03-07T00:47:43;25.58;;;13.48;;
28796;SDS011;24974;54.444;18.560;2024-03-07T00:50:14;27.10;;;12.75;;
28796;SDS011;24974;54.444;18.560;2024-03-07T00:52:45;21.85;;;13.23;;
28796;SDS011;24974;54.444;18.560;2024-03-07T00:55:16;26.05;;;14.25;;
28796;SDS011;24974;54.444;18.560;2024-03-07T00:57:48;26.65;;;13.90;;
28796;SDS011;24974;54.444;18.560;2024-03-07T01:00:19;20.42;;;12.63;;
28796;SDS011;24974;54.444;18.560;2024-03-07T01:02:51;21.35;;;12.18;;
28796;SDS011;24974;54.444;18.560;2024-03-07T01:05:23;23.05;;;12.90;;
28796;SDS011;24974;54.444;18.560;2024-03-07T01:07:54;27.05;;;14.57;;
28796;SDS011;24974;54.444;18.560;2024-03-07T01:10:26;23.80;;;12.63;;
28796;SDS011;24974;54.444;18.560;2024-03-07T01:12:57;28.75;;;13.77;;
28796;SDS011;24974;54.444;18.560;2024-03-07T01:15:31;24.58;;;13.95;;
28796;SDS011;24974;54.444;18.560;2024-03-07T01:18:03;25.35;;;13.48;;
28796;SDS011;24974;54.444;18.560;2024-03-07T01:20:34;25.98;;;13.15;;
28796;SDS011;24974;54.444;18.560;2024-03-07T01:23:06;24.92;;;13.70;;
28796;SDS011;24974;54.444;18.560;2024-03-07T01:25:38;22.38;;;13.40;;
28796;SDS011;24974;54.444;18.560;2024-03-07T01:28:10;26.30;;;13.75;;
28796;SDS011;24974;54.444;18.560;2024-03-07T01:30:44;23.20;;;12.77;;
28796;SDS011;24974;54.444;18.560;2024-03-07T01:33:14;22.52;;;13.32;;
28796;SDS011;24974;54.444;18.560;2024-03-07T01:35:45;24.33;;;12.63;;
28796;SDS011;24974;54.444;18.560;2024-03-07T01:38:16;19.67;;;12.13;;
28796;SDS011;24974;54.444;18.560;2024-03-07T01:40:47;26.95;;;15.65;;
28796;SDS011;24974;54.444;18.560;2024-03-07T01:43:19;24.13;;;13.77;;
28796;SDS011;24974;54.444;18.560;2024-03-07T01:45:53;29.60;;;13.45;;
28796;SDS011;24974;54.444;18.560;2024-03-07T01:48:27;25.42;;;14.05;;
28796;SDS011;24974;54.444;18.560;2024-03-07T01:51:02;24.90;;;12.57;;
28796;SDS011;24974;54.444;18.560;2024-03-07T01:53:35;25.48;;;13.50;;
28796;SDS011;24974;54.444;18.560;2024-03-07T01:56:06;23.98;;;12.63;;
28796;SDS011;24974;54.444;18.560;2024-03-07T01:58:37;30.15;;;13.38;;
28796;SDS011;24974;54.444;18.560;2024-03-07T02:01:09;26.35;;;13.57;;
28796;SDS011;24974;54.444;18.560;2024-03-07T02:03:40;25.98;;;13.90;;
28796;SDS011;24974;54.444;18.560;2024-03-07T02:06:11;23.98;;;13.50;;
28796;SDS011;24974;54.444;18.560;2024-03-07T02:08:42;25.60;;;13.45;;
28796;SDS011;24974;54.444;18.560;2024-03-07T02:11:13;21.13;;;13.27;;
28796;SDS011;24974;54.444;18.560;2024-03-07T02:13:44;25.38;;;12.73;;
28796;SDS011;24974;54.444;18.560;2024-03-07T02:16:15;25.13;;;13.95;;
28796;SDS011;24974;54.444;18.560;2024-03-07T02:18:46;31.00;;;14.13;;
28796;SDS011;24974;54.444;18.560;2024-03-07T02:21:17;23.95;;;12.95;;
28796;SDS011;24974;54.444;18.560;2024-03-07T02:23:48;26.70;;;13.48;;
28796;SDS011;24974;54.444;18.560;2024-03-07T02:26:19;26.08;;;13.73;;
28796;SDS011;24974;54.444;18.560;2024-03-07T02:28:50;27.40;;;13.88;;
28796;SDS011;24974;54.444;18.560;2024-03-07T02:31:21;28.42;;;13.82;;
28796;SDS011;24974;54.444;18.560;2024-03-07T02:33:58;26.20;;;12.88;;
28796;SDS011;24974;54.444;18.560;2024-03-07T02:36:29;23.85;;;13.27;;
28796;SDS011;24974;54.444;18.560;2024-03-07T02:39:01;22.55;;;13.40;;
28796;SDS011;24974;54.444;18.560;2024-03-07T02:41:32;29.42;;;13.98;;
28796;SDS011;24974;54.444;18.560;2024-03-07T02:44:04;25.83;;;13.80;;
28796;SDS011;24974;54.444;18.560;2024-03-07T02:46:35;25.45;;;12.32;;
28796;SDS011;24974;54.444;18.560;2024-03-07T02:49:07;26.33;;;14.27;;
28796;SDS011;24974;54.444;18.560;2024-03-07T02:51:38;25.67;;;12.65;;
28796;SDS011;24974;54.444;18.560;2024-03-07T02:54:08;23.73;;;12.55;;
28796;SDS011;24974;54.444;18.560;2024-03-07T02:56:39;23.17;;;13.00;;
28796;SDS011;24974;54.444;18.560;2024-03-07T02:59:10;26.95;;;12.77;;
28796;SDS011;24974;54.444;18.560;2024-03-07T03:01:41;24.88;;;12.70;;
28796;SDS011;24974;54.444;18.560;2024-03-07T03:04:12;29.15;;;14.45;;
28796;SDS011;24974;54.444;18.560;2024-03-07T03:06:44;24.63;;;12.65;;
28796;SDS011;24974;54.444;18.560;2024-03-07T03:09:16;26.20;;;13.70;;
28796;SDS011;24974;54.444;18.560;2024-03-07T03:11:47;23.00;;;12.75;;
28796;SDS011;24974;54.444;18.560;2024-03-07T03:14:18;25.48;;;12.90;;
28796;SDS011;24974;54.444;18.560;2024-03-07T03:16:49;29.10;;;13.80;;
28796;SDS011;24974;54.444;18.560;2024-03-07T03:19:20;25.15;;;12.93;;
28796;SDS011;24974;54.444;18.560;2024-03-07T03:21:53;25.27;;;13.35;;
28796;SDS011;24974;54.444;18.560;2024-03-07T03:24:26;26.00;;;13.25;;
28796;SDS011;24974;54.444;18.560;2024-03-07T03:26:57;25.35;;;12.93;;
28796;SDS011;24974;54.444;18.560;2024-03-07T03:29:28;24.35;;;13.55;;
28796;SDS011;24974;54.444;18.560;2024-03-07T03:31:59;28.45;;;14.80;;
28796;SDS011;24974;54.444;18.560;2024-03-07T03:34:30;26.42;;;13.02;;
28796;SDS011;24974;54.444;18.560;2024-03-07T03:37:01;25.88;;;14.35;;
28796;SDS011;24974;54.444;18.560;2024-03-07T03:39:32;26.33;;;13.30;;
28796;SDS011;24974;54.444;18.560;2024-03-07T03:42:03;28.92;;;13.35;;
28796;SDS011;24974;54.444;18.560;2024-03-07T03:44:34;25.13;;;13.10;;
28796;SDS011;24974;54.444;18.560;2024-03-07T03:47:05;25.33;;;13.57;;
28796;SDS011;24974;54.444;18.560;2024-03-07T03:49:36;26.88;;;13.52;;
28796;SDS011;24974;54.444;18.560;2024-03-07T03:52:07;27.55;;;13.85;;
28796;SDS011;24974;54.444;18.560;2024-03-07T03:54:38;26.08;;;13.68;;
28796;SDS011;24974;54.444;18.560;2024-03-07T03:57:09;29.65;;;14.40;;
28796;SDS011;24974;54.444;18.560;2024-03-07T03:59:42;30.52;;;15.65;;
28796;SDS011;24974;54.444;18.560;2024-03-07T04:02:15;27.98;;;14.65;;
28796;SDS011;24974;54.444;18.560;2024-03-07T04:04:47;31.25;;;14.20;;
28796;SDS011;24974;54.444;18.560;2024-03-07T04:07:19;29.10;;;14.45;;
28796;SDS011;24974;54.444;18.560;2024-03-07T04:09:50;32.50;;;15.88;;
28796;SDS011;24974;54.444;18.560;2024-03-07T04:12:21;25.65;;;14.15;;
28796;SDS011;24974;54.444;18.560;2024-03-07T04:14:53;33.90;;;14.70;;
28796;SDS011;24974;54.444;18.560;2024-03-07T04:17:26;29.58;;;15.25;;
28796;SDS011;24974;54.444;18.560;2024-03-07T04:19:57;29.23;;;13.50;;
28796;SDS011;24974;54.444;18.560;2024-03-07T04:22:29;31.90;;;14.88;;
28796;SDS011;24974;54.444;18.560;2024-03-07T04:25:00;28.00;;;14.60;;
28796;SDS011;24974;54.444;18.560;2024-03-07T04:27:31;30.90;;;14.82;;
28796;SDS011;24974;54.444;18.560;2024-03-07T04:30:03;30.55;;;15.95;;
28796;SDS011;24974;54.444;18.560;2024-03-07T04:32:38;30.45;;;15.85;;
28796;SDS011;24974;54.444;18.560;2024-03-07T04:35:09;30.95;;;15.15;;
28796;SDS011;24974;54.444;18.560;2024-03-07T04:37:41;30.67;;;15.95;;
28796;SDS011;24974;54.444;18.560;2024-03-07T04:40:12;30.30;;;15.68;;
28796;SDS011;24974;54.444;18.560;2024-03-07T04:42:46;31.65;;;15.38;;
28796;SDS011;24974;54.444;18.560;2024-03-07T04:45:19;32.22;;;16.42;;
28796;SDS011;24974;54.444;18.560;2024-03-07T04:47:51;34.15;;;15.77;;
28796;SDS011;24974;54.444;18.560;2024-03-07T04:50:22;36.28;;;15.80;;
28796;SDS011;24974;54.444;18.560;2024-03-07T04:52:53;32.00;;;16.38;;
28796;SDS011;24974;54.444;18.560;2024-03-07T04:55:24;30.58;;;16.15;;
28796;SDS011;24974;54.444;18.560;2024-03-07T04:57:55;31.58;;;14.98;;
28796;SDS011;24974;54.444;18.560;2024-03-07T05:00:25;41.42;;;16.05;;
28796;SDS011;24974;54.444;18.560;2024-03-07T05:02:56;29.17;;;15.13;;
28796;SDS011;24974;54.444;18.560;2024-03-07T05:05:28;34.72;;;14.75;;
28796;SDS011;24974;54.444;18.560;2024-03-07T05:07:58;34.05;;;14.75;;
28796;SDS011;24974;54.444;18.560;2024-03-07T05:10:29;28.58;;;15.10;;
28796;SDS011;24974;54.444;18.560;2024-03-07T05:13:01;27.92;;;14.35;;
28796;SDS011;24974;54.444;18.560;2024-03-07T05:15:31;33.97;;;15.35;;
28796;SDS011;24974;54.444;18.560;2024-03-07T05:18:02;29.58;;;15.38;;
28796;SDS011;24974;54.444;18.560;2024-03-07T05:20:35;26.58;;;14.40;;
28796;SDS011;24974;54.444;18.560;2024-03-07T05:23:05;34.22;;;15.80;;
28796;SDS011;24974;54.444;18.560;2024-03-07T05:25:36;30.73;;;15.57;;
28796;SDS011;24974;54.444;18.560;2024-03-07T05:28:09;29.38;;;15.43;;
28796;SDS011;24974;54.444;18.560;2024-03-07T05:30:40;27.58;;;15.35;;
28796;SDS011;24974;54.444;18.560;2024-03-07T05:33:11;32.58;;;15.93;;
28796;SDS011;24974;54.444;18.560;2024-03-07T05:35:42;27.35;;;14.90;;
28796;SDS011;24974;54.444;18.560;2024-03-07T05:38:14;32.90;;;15.90;;
28796;SDS011;24974;54.444;18.560;2024-03-07T05:40:44;33.38;;;15.93;;
28796;SDS011;24974;54.444;18.560;2024-03-07T05:43:17;31.35;;;15.73;;
28796;SDS011;24974;54.444;18.560;2024-03-07T05:45:47;29.65;;;16.25;;
28796;SDS011;24974;54.444;18.560;2024-03-07T05:48:18;28.90;;;15.07;;
28796;SDS011;24974;54.444;18.560;2024-03-07T05:50:49;30.05;;;14.68;;
28796;SDS011;24974;54.444;18.560;2024-03-07T05:53:20;32.70;;;15.68;;
28796;SDS011;24974;54.444;18.560;2024-03-07T05:55:51;29.23;;;14.80;;
28796;SDS011;24974;54.444;18.560;2024-03-07T05:58:21;28.27;;;14.80;;
28796;SDS011;24974;54.444;18.560;2024-03-07T06:00:52;32.15;;;16.20;;
28796;SDS011;24974;54.444;18.560;2024-03-07T06:03:23;31.52;;;14.75;;
28796;SDS011;24974;54.444;18.560;2024-03-07T06:05:56;29.13;;;14.65;;
28796;SDS011;24974;54.444;18.560;2024-03-07T06:08:26;31.38;;;14.88;;
28796;SDS011;24974;54.444;18.560;2024-03-07T06:10:57;27.25;;;14.60;;
28796;SDS011;24974;54.444;18.560;2024-03-07T06:13:28;27.98;;;14.10;;
28796;SDS011;24974;54.444;18.560;2024-03-07T06:15:59;27.23;;;14.52;;
28796;SDS011;24974;54.444;18.560;2024-03-07T06:18:34;24.25;;;13.88;;
28796;SDS011;24974;54.444;18.560;2024-03-07T06:21:05;33.90;;;15.55;;
28796;SDS011;24974;54.444;18.560;2024-03-07T06:23:36;32.28;;;14.23;;
28796;SDS011;24974;54.444;18.560;2024-03-07T06:26:07;23.75;;;13.35;;
28796;SDS011;24974;54.444;18.560;2024-03-07T06:28:43;25.05;;;13.95;;
28796;SDS011;24974;54.444;18.560;2024-03-07T06:31:15;25.40;;;13.55;;
28796;SDS011;24974;54.444;18.560;2024-03-07T06:33:47;22.88;;;12.90;;
28796;SDS011;24974;54.444;18.560;2024-03-07T06:36:18;28.90;;;13.27;;
28796;SDS011;24974;54.444;18.560;2024-03-07T06:38:49;31.55;;;12.65;;
28796;SDS011;24974;54.444;18.560;2024-03-07T06:41:20;23.00;;;12.35;;
28796;SDS011;24974;54.444;18.560;2024-03-07T06:43:50;27.33;;;13.02;;
28796;SDS011;24974;54.444;18.560;2024-03-07T06:46:23;21.90;;;12.00;;
28796;SDS011;24974;54.444;18.560;2024-03-07T06:48:55;22.52;;;12.85;;
28796;SDS011;24974;54.444;18.560;2024-03-07T06:51:29;18.77;;;11.07;;
28796;SDS011;24974;54.444;18.560;2024-03-07T06:53:59;22.45;;;11.73;;
28796;SDS011;24974;54.444;18.560;2024-03-07T06:56:30;20.65;;;10.75;;
28796;SDS011;24974;54.444;18.560;2024-03-07T06:59:01;27.38;;;10.57;;
28796;SDS011;24974;54.444;18.560;2024-03-07T07:01:34;18.75;;;10.13;;
28796;SDS011;24974;54.444;18.560;2024-03-07T07:04:05;24.88;;;12.68;;
28796;SDS011;24974;54.444;18.560;2024-03-07T07:06:38;15.48;;;9.82;;
28796;SDS011;24974;54.444;18.560;2024-03-07T07:09:09;25.90;;;10.23;;
28796;SDS011;24974;54.444;18.560;2024-03-07T07:11:40;18.38;;;8.60;;
28796;SDS011;24974;54.444;18.560;2024-03-07T07:14:13;15.63;;;8.35;;
28796;SDS011;24974;54.444;18.560;2024-03-07T07:16:43;17.52;;;7.45;;
28796;SDS011;24974;54.444;18.560;2024-03-07T07:19:16;14.93;;;8.35;;
28796;SDS011;24974;54.444;18.560;2024-03-07T07:21:47;21.58;;;7.80;;
28796;SDS011;24974;54.444;18.560;2024-03-07T07:24:20;13.05;;;6.65;;
28796;SDS011;24974;54.444;18.560;2024-03-07T07:26:54;10.95;;;6.18;;
28796;SDS011;24974;54.444;18.560;2024-03-07T07:29:25;18.65;;;6.22;;
28796;SDS011;24974;54.444;18.560;2024-03-07T07:31:56;12.38;;;6.72;;
28796;SDS011;24974;54.444;18.560;2024-03-07T07:34:27;13.27;;;6.88;;
28796;SDS011;24974;54.444;18.560;2024-03-07T07:36:58;10.50;;;5.88;;
28796;SDS011;24974;54.444;18.560;2024-03-07T07:39:29;18.30;;;7.20;;
28796;SDS011;24974;54.444;18.560;2024-03-07T07:41:59;17.75;;;7.75;;
28796;SDS011;24974;54.444;18.560;2024-03-07T07:44:30;11.93;;;6.43;;
28796;SDS011;24974;54.444;18.560;2024-03-07T07:47:01;13.98;;;5.75;;
28796;SDS011;24974;54.444;18.560;2024-03-07T07:49:32;11.65;;;6.18;;
28796;SDS011;24974;54.444;18.560;2024-03-07T07:52:03;10.90;;;6.10;;
28796;SDS011;24974;54.444;18.560;2024-03-07T07:54:34;10.90;;;6.18;;
28796;SDS011;24974;54.444;18.560;2024-03-07T07:57:05;14.73;;;6.07;;
28796;SDS011;24974;54.444;18.560;2024-03-07T07:59:36;9.20;;;5.60;;
28796;SDS011;24974;54.444;18.560;2024-03-07T08:02:07;10.35;;;5.43;;
28796;SDS011;24974;54.444;18.560;2024-03-07T08:04:38;9.35;;;5.78;;
28796;SDS011;24974;54.444;18.560;2024-03-07T08:07:08;9.85;;;5.63;;
28796;SDS011;24974;54.444;18.560;2024-03-07T08:09:39;11.73;;;5.50;;
28796;SDS011;24974;54.444;18.560;2024-03-07T08:12:10;10.95;;;5.85;;
28796;SDS011;24974;54.444;18.560;2024-03-07T08:14:42;11.23;;;5.82;;
28796;SDS011;24974;54.444;18.560;2024-03-07T08:17:15;7.40;;;4.68;;
28796;SDS011;24974;54.444;18.560;2024-03-07T08:19:46;12.00;;;5.75;;
28796;SDS011;24974;54.444;18.560;2024-03-07T08:22:19;8.32;;;5.03;;
28796;SDS011;24974;54.444;18.560;2024-03-07T08:24:49;11.13;;;5.90;;
28796;SDS011;24974;54.444;18.560;2024-03-07T08:27:20;18.10;;;5.30;;
28796;SDS011;24974;54.444;18.560;2024-03-07T08:29:51;10.45;;;5.07;;
28796;SDS011;24974;54.444;18.560;2024-03-07T08:32:22;8.82;;;5.18;;
28796;SDS011;24974;54.444;18.560;2024-03-07T08:34:52;13.65;;;4.95;;
28796;SDS011;24974;54.444;18.560;2024-03-07T08:37:23;7.40;;;4.32;;
28796;SDS011;24974;54.444;18.560;2024-03-07T08:39:54;11.50;;;5.53;;
28796;SDS011;24974;54.444;18.560;2024-03-07T08:42:25;9.68;;;5.03;;
28796;SDS011;24974;54.444;18.560;2024-03-07T08:44:56;12.00;;;5.47;;
28796;SDS011;24974;54.444;18.560;2024-03-07T08:47:27;10.85;;;4.38;;
28796;SDS011;24974;54.444;18.560;2024-03-07T08:49:59;8.68;;;4.70;;
28796;SDS011;24974;54.444;18.560;2024-03-07T08:52:30;9.98;;;5.10;;
28796;SDS011;24974;54.444;18.560;2024-03-07T08:55:01;7.55;;;4.72;;
28796;SDS011;24974;54.444;18.560;2024-03-07T08:57:33;9.80;;;5.00;;
28796;SDS011;24974;54.444;18.560;2024-03-07T09:00:04;7.05;;;4.60;;
28796;SDS011;24974;54.444;18.560;2024-03-07T09:02:39;11.45;;;5.18;;
28796;SDS011;24974;54.444;18.560;2024-03-07T09:05:10;8.73;;;4.38;;
28796;SDS011;24974;54.444;18.560;2024-03-07T09:07:41;9.68;;;4.45;;
28796;SDS011;24974;54.444;18.560;2024-03-07T09:10:12;6.50;;;3.83;;
28796;SDS011;24974;54.444;18.560;2024-03-07T09:12:45;10.40;;;4.25;;
28796;SDS011;24974;54.444;18.560;2024-03-07T09:15:17;10.55;;;4.47;;
28796;SDS011;24974;54.444;18.560;2024-03-07T09:17:49;7.75;;;4.78;;
28796;SDS011;24974;54.444;18.560;2024-03-07T09:20:20;8.75;;;4.57;;
28796;SDS011;24974;54.444;18.560;2024-03-07T09:22:51;11.38;;;4.28;;
28796;SDS011;24974;54.444;18.560;2024-03-07T09:25:24;7.80;;;3.92;;
28796;SDS011;24974;54.444;18.560;2024-03-07T09:27:55;10.15;;;3.88;;
28796;SDS011;24974;54.444;18.560;2024-03-07T09:30:26;7.35;;;4.18;;
28796;SDS011;24974;54.444;18.560;2024-03-07T09:32:58;10.32;;;5.15;;
28796;SDS011;24974;54.444;18.560;2024-03-07T09:35:29;9.48;;;3.88;;
28796;SDS011;24974;54.444;18.560;2024-03-07T09:38:00;6.50;;;4.13;;
28796;SDS011;24974;54.444;18.560;2024-03-07T09:40:30;8.80;;;4.18;;
28796;SDS011;24974;54.444;18.560;2024-03-07T09:43:01;5.45;;;3.75;;
28796;SDS011;24974;54.444;18.560;2024-03-07T09:45:32;6.45;;;3.50;;
28796;SDS011;24974;54.444;18.560;2024-03-07T09:48:05;8.77;;;4.07;;
28796;SDS011;24974;54.444;18.560;2024-03-07T09:50:39;7.68;;;3.78;;
28796;SDS011;24974;54.444;18.560;2024-03-07T09:53:14;7.53;;;3.53;;
28796;SDS011;24974;54.444;18.560;2024-03-07T09:55:47;10.18;;;3.97;;
28796;SDS011;24974;54.444;18.560;2024-03-07T09:58:19;6.28;;;3.67;;
28796;SDS011;24974;54.444;18.560;2024-03-07T10:00:50;5.40;;;3.25;;
28796;SDS011;24974;54.444;18.560;2024-03-07T10:03:24;11.50;;;3.53;;
28796;SDS011;24974;54.444;18.560;2024-03-07T10:05:59;8.32;;;3.63;;
28796;SDS011;24974;54.444;18.560;2024-03-07T10:08:31;7.25;;;3.10;;
28796;SDS011;24974;54.444;18.560;2024-03-07T10:11:02;6.32;;;3.53;;
28796;SDS011;24974;54.444;18.560;2024-03-07T10:13:33;9.00;;;3.15;;
28796;SDS011;24974;54.444;18.560;2024-03-07T10:16:05;6.43;;;3.83;;
28796;SDS011;24974;54.444;18.560;2024-03-07T10:18:42;6.13;;;3.53;;
28796;SDS011;24974;54.444;18.560;2024-03-07T10:23:44;7.00;;;3.53;;
28796;SDS011;24974;54.444;18.560;2024-03-07T10:26:15;6.45;;;3.45;;
28796;SDS011;24974;54.444;18.560;2024-03-07T10:28:46;6.03;;;3.70;;
28796;SDS011;24974;54.444;18.560;2024-03-07T10:31:27;4.35;;;3.05;;
28796;SDS011;24974;54.444;18.560;2024-03-07T10:34:02;7.22;;;3.40;;
28796;SDS011;24974;54.444;18.560;2024-03-07T10:36:34;6.80;;;3.50;;
28796;SDS011;24974;54.444;18.560;2024-03-07T10:39:05;14.13;;;3.53;;
28796;SDS011;24974;54.444;18.560;2024-03-07T10:41:44;6.60;;;3.83;;
28796;SDS011;24974;54.444;18.560;2024-03-07T10:44:20;11.15;;;3.97;;
28796;SDS011;24974;54.444;18.560;2024-03-07T10:46:55;6.63;;;3.50;;
28796;SDS011;24974;54.444;18.560;2024-03-07T10:49:27;4.43;;;3.25;;
28796;SDS011;24974;54.444;18.560;2024-03-07T10:52:12;6.88;;;3.70;;
28796;SDS011;24974;54.444;18.560;2024-03-07T11:00:32;9.45;;;3.33;;
28796;SDS011;24974;54.444;18.560;2024-03-07T11:03:07;6.70;;;3.47;;
28796;SDS011;24974;54.444;18.560;2024-03-07T11:05:38;9.20;;;3.40;;
28796;SDS011;24974;54.444;18.560;2024-03-07T11:08:10;6.05;;;3.53;;
28796;SDS011;24974;54.444;18.560;2024-03-07T11:10:44;5.53;;;3.67;;
28796;SDS011;24974;54.444;18.560;2024-03-07T11:13:17;5.07;;;3.08;;
28796;SDS011;24974;54.444;18.560;2024-03-07T11:15:49;4.45;;;2.95;;
28796;SDS011;24974;54.444;18.560;2024-03-07T11:18:21;7.82;;;3.40;;
28796;SDS011;24974;54.444;18.560;2024-03-07T11:20:52;8.20;;;3.65;;
28796;SDS011;24974;54.444;18.560;2024-03-07T11:23:25;4.97;;;3.33;;
28796;SDS011;24974;54.444;18.560;2024-03-07T11:28:41;5.95;;;2.90;;
28796;SDS011;24974;54.444;18.560;2024-03-07T11:31:30;6.75;;;3.30;;
28796;SDS011;24974;54.444;18.560;2024-03-07T11:34:14;5.25;;;3.08;;
28796;SDS011;24974;54.444;18.560;2024-03-07T11:36:46;5.13;;;3.05;;
28796;SDS011;24974;54.444;18.560;2024-03-07T11:42:23;6.18;;;3.22;;
28796;SDS011;24974;54.444;18.560;2024-03-07T11:44:56;7.10;;;3.55;;
28796;SDS011;24974;54.444;18.560;2024-03-07T11:47:34;5.13;;;3.50;;
28796;SDS011;24974;54.444;18.560;2024-03-07T11:50:09;3.85;;;2.63;;
28796;SDS011;24974;54.444;18.560;2024-03-07T11:52:42;8.95;;;3.53;;
28796;SDS011;24974;54.444;18.560;2024-03-07T11:55:14;7.88;;;3.88;;
28796;SDS011;24974;54.444;18.560;2024-03-07T11:57:46;6.65;;;3.05;;
28796;SDS011;24974;54.444;18.560;2024-03-07T12:00:18;5.95;;;3.30;;
28796;SDS011;24974;54.444;18.560;2024-03-07T12:02:50;4.28;;;3.10;;
28796;SDS011;24974;54.444;18.560;2024-03-07T12:05:24;8.48;;;3.40;;
28796;SDS011;24974;54.444;18.560;2024-03-07T12:07:57;6.70;;;3.05;;
28796;SDS011;24974;54.444;18.560;2024-03-07T12:10:28;6.95;;;3.10;;
28796;SDS011;24974;54.444;18.560;2024-03-07T12:12:59;8.02;;;3.55;;
28796;SDS011;24974;54.444;18.560;2024-03-07T12:15:32;8.98;;;3.95;;
28796;SDS011;24974;54.444;18.560;2024-03-07T12:18:05;5.07;;;3.30;;
28796;SDS011;24974;54.444;18.560;2024-03-07T12:20:40;5.47;;;3.53;;
28796;SDS011;24974;54.444;18.560;2024-03-07T12:23:12;4.30;;;3.00;;
28796;SDS011;24974;54.444;18.560;2024-03-07T12:25:44;5.15;;;3.10;;
28796;SDS011;24974;54.444;18.560;2024-03-07T12:28:15;9.10;;;3.42;;
28796;SDS011;24974;54.444;18.560;2024-03-07T12:30:53;6.03;;;3.47;;
28796;SDS011;24974;54.444;18.560;2024-03-07T12:33:26;5.75;;;3.10;;
28796;SDS011;24974;54.444;18.560;2024-03-07T12:35:57;7.30;;;3.22;;
28796;SDS011;24974;54.444;18.560;2024-03-07T12:38:36;5.70;;;3.38;;
28796;SDS011;24974;54.444;18.560;2024-03-07T12:41:08;9.50;;;3.55;;
28796;SDS011;24974;54.444;18.560;2024-03-07T12:43:46;6.45;;;3.20;;
28796;SDS011;24974;54.444;18.560;2024-03-07T12:46:17;6.28;;;3.08;;
28796;SDS011;24974;54.444;18.560;2024-03-07T12:48:48;4.93;;;3.65;;
28796;SDS011;24974;54.444;18.560;2024-03-07T12:51:20;4.43;;;3.08;;
28796;SDS011;24974;54.444;18.560;2024-03-07T12:53:56;6.63;;;3.00;;
28796;SDS011;24974;54.444;18.560;2024-03-07T12:56:26;11.70;;;3.80;;
28796;SDS011;24974;54.444;18.560;2024-03-07T12:58:57;5.75;;;3.53;;
28796;SDS011;24974;54.444;18.560;2024-03-07T13:01:30;6.10;;;3.00;;
28796;SDS011;24974;54.444;18.560;2024-03-07T13:04:03;6.35;;;3.17;;
28796;SDS011;24974;54.444;18.560;2024-03-07T13:06:34;7.63;;;3.00;;
28796;SDS011;24974;54.444;18.560;2024-03-07T13:09:05;4.93;;;3.08;;
28796;SDS011;24974;54.444;18.560;2024-03-07T13:11:40;6.45;;;3.83;;
28796;SDS011;24974;54.444;18.560;2024-03-07T13:14:12;8.43;;;3.60;;
28796;SDS011;24974;54.444;18.560;2024-03-07T13:16:44;13.55;;;3.55;;
28796;SDS011;24974;54.444;18.560;2024-03-07T13:19:15;6.85;;;3.35;;
28796;SDS011;24974;54.444;18.560;2024-03-07T13:21:50;6.15;;;2.75;;
28796;SDS011;24974;54.444;18.560;2024-03-07T13:24:22;10.15;;;3.75;;
28796;SDS011;24974;54.444;18.560;2024-03-07T13:26:56;6.53;;;3.38;;
28796;SDS011;24974;54.444;18.560;2024-03-07T13:29:26;8.40;;;3.47;;
28796;SDS011;24974;54.444;18.560;2024-03-07T13:31:58;6.78;;;3.45;;
28796;SDS011;24974;54.444;18.560;2024-03-07T13:34:30;7.07;;;3.72;;
28796;SDS011;24974;54.444;18.560;2024-03-07T13:37:00;8.13;;;3.40;;
28796;SDS011;24974;54.444;18.560;2024-03-07T13:39:31;5.75;;;3.15;;
28796;SDS011;24974;54.444;18.560;2024-03-07T13:42:02;6.78;;;3.58;;
28796;SDS011;24974;54.444;18.560;2024-03-07T13:44:35;7.32;;;3.42;;
28796;SDS011;24974;54.444;18.560;2024-03-07T13:47:05;12.63;;;3.63;;
28796;SDS011;24974;54.444;18.560;2024-03-07T13:49:37;10.35;;;4.05;;
28796;SDS011;24974;54.444;18.560;2024-03-07T13:52:08;5.70;;;3.55;;
28796;SDS011;24974;54.444;18.560;2024-03-07T13:54:48;7.95;;;3.88;;
28796;SDS011;24974;54.444;18.560;2024-03-07T13:57:28;7.70;;;3.97;;
28796;SDS011;24974;54.444;18.560;2024-03-07T14:00:20;5.80;;;3.55;;
28796;SDS011;24974;54.444;18.560;2024-03-07T14:20:36;6.90;;;4.22;;
28796;SDS011;24974;54.444;18.560;2024-03-07T14:23:54;10.30;;;4.07;;
28796;SDS011;24974;54.444;18.560;2024-03-07T14:32:41;6.15;;;3.55;;
28796;SDS011;24974;54.444;18.560;2024-03-07T14:38:39;7.70;;;3.92;;
28796;SDS011;24974;54.444;18.560;2024-03-07T14:41:11;8.05;;;4.35;;
28796;SDS011;24974;54.444;18.560;2024-03-07T14:43:45;5.35;;;3.38;;
28796;SDS011;24974;54.444;18.560;2024-03-07T14:46:16;7.03;;;3.53;;
28796;SDS011;24974;54.444;18.560;2024-03-07T14:48:48;7.90;;;4.28;;
28796;SDS011;24974;54.444;18.560;2024-03-07T14:51:18;8.40;;;4.25;;
28796;SDS011;24974;54.444;18.560;2024-03-07T14:53:49;6.93;;;3.58;;
28796;SDS011;24974;54.444;18.560;2024-03-07T14:56:20;7.07;;;4.30;;
28796;SDS011;24974;54.444;18.560;2024-03-07T14:58:51;11.38;;;4.68;;
28796;SDS011;24974;54.444;18.560;2024-03-07T15:01:22;11.18;;;4.68;;
28796;SDS011;24974;54.444;18.560;2024-03-07T15:03:57;12.38;;;3.90;;
28796;SDS011;24974;54.444;18.560;2024-03-07T15:06:28;20.27;;;4.93;;
28796;SDS011;24974;54.444;18.560;2024-03-07T15:09:02;17.70;;;4.40;;
28796;SDS011;24974;54.444;18.560;2024-03-07T15:11:34;20.63;;;4.75;;
28796;SDS011;24974;54.444;18.560;2024-03-07T15:14:06;20.55;;;5.50;;
28796;SDS011;24974;54.444;18.560;2024-03-07T15:16:40;22.42;;;5.35;;
28796;SDS011;24974;54.444;18.560;2024-03-07T15:19:11;28.02;;;5.63;;
28796;SDS011;24974;54.444;18.560;2024-03-07T15:21:42;11.32;;;4.35;;
28796;SDS011;24974;54.444;18.560;2024-03-07T15:24:13;12.50;;;5.00;;
28796;SDS011;24974;54.444;18.560;2024-03-07T15:26:44;19.45;;;4.75;;
28796;SDS011;24974;54.444;18.560;2024-03-07T15:29:15;11.65;;;4.20;;
28796;SDS011;24974;54.444;18.560;2024-03-07T15:31:52;10.48;;;4.38;;